Time;durP1;ratioP1;P1;durP2;ratioP2;P2;SDS_P1;SDS_P2;PMS_P1;PMS_P2;Temp;Humidity;BMP_temperature;BMP_pressure;BME280_temperature;BME280_humidity;BME280_pressure;Samples;Min_cycle;Max_cycle;Signal;HPM_P1;HPM_P2
2022/07/27 00:01:16;;;;;;;4.45;3.25;;;19.40;99.90;;;;;;5017518;28;20021;-73
2022/07/27 00:03:43;;;;;;;4.63;3.13;;;19.30;99.90;;;;;;5010962;28;20100;-74
2022/07/27 00:06:09;;;;;;;5.03;3.45;;;19.30;99.90;;;;;;5012236;28;20022;-74
2022/07/27 00:08:35;;;;;;;3.22;2.72;;;19.40;99.90;;;;;;5012291;28;20033;-73
2022/07/27 00:11:00;;;;;;;4.50;3.38;;;19.20;99.90;;;;;;5010444;28;20092;-73
2022/07/27 00:13:26;;;;;;;3.10;2.80;;;19.40;99.90;;;;;;5013244;28;20104;-73
2022/07/27 00:15:52;;;;;;;3.47;3.10;;;19.50;99.90;;;;;;5024438;28;20040;-73
2022/07/27 00:18:18;;;;;;;5.38;3.10;;;19.50;99.90;;;;;;5026131;28;20438;-71
2022/07/27 00:20:43;;;;;;;6.18;3.20;;;19.50;99.90;;;;;;5031117;28;20040;-70
2022/07/27 00:23:09;;;;;;;4.30;3.40;;;19.50;99.90;;;;;;5031731;28;20373;-70
2022/07/27 00:25:34;;;;;;;6.25;3.47;;;19.40;99.90;;;;;;5031698;28;20025;-70
2022/07/27 00:28:01;;;;;;;5.45;3.33;;;19.50;99.90;;;;;;5031646;28;20061;-71
2022/07/27 00:30:27;;;;;;;3.42;3.13;;;19.30;99.90;;;;;;5029924;28;20029;-71
2022/07/27 00:32:53;;;;;;;3.60;3.30;;;19.40;99.90;;;;;;5031524;28;20038;-72
2022/07/27 00:35:19;;;;;;;3.67;3.38;;;19.40;99.90;;;;;;5023884;28;20021;-72
2022/07/27 00:37:45;;;;;;;4.05;3.10;;;19.30;99.90;;;;;;5011832;28;20048;-72
2022/07/27 00:40:11;;;;;;;7.75;3.28;;;19.30;99.90;;;;;;5019467;28;20037;-73
2022/07/27 00:42:37;;;;;;;6.32;3.08;;;19.20;99.90;;;;;;5030989;28;20025;-72
2022/07/27 00:45:04;;;;;;;3.67;3.30;;;19.10;99.90;;;;;;5031547;28;20025;-72
2022/07/27 00:47:31;;;;;;;5.45;3.38;;;19.20;99.90;;;;;;5031260;28;20400;-73
2022/07/27 00:49:57;;;;;;;3.83;3.05;;;19.20;99.90;;;;;;5014936;28;20022;-71
2022/07/27 00:52:23;;;;;;;3.80;3.45;;;19.10;99.90;;;;;;5006065;28;20033;-71
2022/07/27 00:54:50;;;;;;;4.05;3.30;;;19.10;99.90;;;;;;5011743;28;20037;-72
2022/07/27 00:57:16;;;;;;;5.15;3.30;;;18.60;99.90;;;;;;5014949;28;20030;-72
2022/07/27 00:59:42;;;;;;;5.18;3.30;;;18.50;99.90;;;;;;5011777;28;20026;-72
2022/07/27 01:02:08;;;;;;;5.85;3.35;;;18.50;99.90;;;;;;5025946;28;20068;-72
2022/07/27 01:04:34;;;;;;;4.78;3.20;;;18.60;99.90;;;;;;5031755;28;20025;-71
2022/07/27 01:07:01;;;;;;;8.60;3.40;;;18.60;99.90;;;;;;5016636;28;20117;-72
2022/07/27 01:12:15;;;;;;;3.40;3.10;;;18.70;99.90;;;;;;5030944;28;20040;-71
2022/07/27 01:14:41;;;;;;;4.47;3.47;;;18.70;99.90;;;;;;5031302;28;20025;-72
2022/07/27 01:17:07;;;;;;;3.80;3.40;;;18.80;99.90;;;;;;5031095;28;20091;-72
2022/07/27 01:19:34;;;;;;;6.80;3.70;;;18.80;99.90;;;;;;5020392;28;20099;-73
2022/07/27 01:22:00;;;;;;;3.75;3.28;;;19.00;99.90;;;;;;5024121;28;20105;-73
2022/07/27 01:24:26;;;;;;;4.50;3.15;;;18.80;99.90;;;;;;5022692;28;20051;-73
2022/07/27 01:26:52;;;;;;;4.47;3.20;;;18.80;99.90;;;;;;5017920;28;20165;-71
2022/07/27 01:29:17;;;;;;;4.20;3.20;;;18.80;99.90;;;;;;5031356;28;20422;-73
2022/07/27 01:31:43;;;;;;;3.47;3.10;;;18.90;99.90;;;;;;5012711;28;20596;-71
2022/07/27 01:34:09;;;;;;;5.50;3.42;;;18.70;99.90;;;;;;5022862;28;20029;-72
2022/07/27 01:36:34;;;;;;;4.90;3.40;;;18.60;99.90;;;;;;5013197;28;20108;-72
2022/07/27 01:39:00;;;;;;;3.92;3.55;;;18.50;99.90;;;;;;5011318;28;20030;-71
2022/07/27 01:41:25;;;;;;;4.60;3.50;;;18.50;99.90;;;;;;5028690;28;20025;-72
2022/07/27 01:43:51;;;;;;;4.38;3.47;;;18.50;99.90;;;;;;5019768;28;20045;-71
2022/07/27 01:46:17;;;;;;;6.13;3.63;;;18.60;99.90;;;;;;5011100;28;20104;-72
2022/07/27 01:48:42;;;;;;;4.38;3.65;;;18.70;99.90;;;;;;5011155;28;20030;-71
2022/07/27 01:51:08;;;;;;;3.85;3.45;;;18.70;99.90;;;;;;5014332;28;20068;-72
2022/07/27 01:53:34;;;;;;;3.63;3.28;;;18.50;99.90;;;;;;5020961;28;20026;-72
2022/07/27 01:55:59;;;;;;;6.18;3.67;;;18.50;99.90;;;;;;5017207;28;20033;-73
2022/07/27 01:58:25;;;;;;;3.78;3.38;;;18.50;99.90;;;;;;5010538;28;20088;-71
2022/07/27 02:00:50;;;;;;;4.85;3.47;;;18.40;99.90;;;;;;5024406;28;20548;-73
2022/07/27 02:03:16;;;;;;;5.38;3.50;;;18.30;99.90;;;;;;5022579;28;20080;-71
2022/07/27 02:05:42;;;;;;;8.40;3.70;;;18.40;99.90;;;;;;5014425;28;20025;-72
2022/07/27 02:08:08;;;;;;;3.50;3.20;;;18.30;99.90;;;;;;5025699;28;20017;-72
2022/07/27 02:12:34;;;;;;;3.38;3.08;;;18.40;99.90;;;;;;5020340;28;20030;-72
2022/07/27 02:13:22;;;;;;;3.70;3.40;;;18.60;99.90;;;;;;5033926;28;20064;-73
2022/07/27 02:15:48;;;;;;;5.55;3.33;;;18.40;99.90;;;;;;5025946;28;20050;-74
2022/07/27 02:18:14;;;;;;;5.85;3.92;;;18.60;99.90;;;;;;5017437;28;20492;-73
2022/07/27 02:20:41;;;;;;;3.15;2.83;;;18.70;99.90;;;;;;5013653;28;20058;-73
2022/07/27 02:23:06;;;;;;;5.93;2.83;;;18.60;99.90;;;;;;5027558;28;20075;-74
2022/07/27 02:25:34;;;;;;;4.30;3.28;;;18.60;99.90;;;;;;5021637;28;20026;-73
2022/07/27 02:28:01;;;;;;;3.67;3.08;;;18.50;99.90;;;;;;5019463;28;20030;-72
2022/07/27 02:30:27;;;;;;;4.43;3.10;;;18.40;99.90;;;;;;5013513;28;20037;-72
2022/07/27 02:32:52;;;;;;;6.25;3.50;;;18.60;99.90;;;;;;5013993;28;20105;-72
2022/07/27 02:35:18;;;;;;;4.57;3.72;;;18.40;99.90;;;;;;5014035;28;20465;-72
2022/07/27 02:37:43;;;;;;;5.93;3.40;;;18.30;99.90;;;;;;5028241;28;20083;-72
2022/07/27 02:40:10;;;;;;;4.22;3.15;;;18.40;99.90;;;;;;5033507;28;20451;-72
2022/07/27 02:42:35;;;;;;;6.32;3.55;;;18.70;99.90;;;;;;5033279;28;20029;-72
2022/07/27 02:45:01;;;;;;;3.85;3.25;;;18.20;99.90;;;;;;5030770;28;20024;-73
2022/07/27 02:47:26;;;;;;;4.00;3.50;;;18.20;99.90;;;;;;5014980;28;20116;-72
2022/07/27 02:49:52;;;;;;;4.18;3.00;;;18.10;99.90;;;;;;5013823;28;20025;-72
2022/07/27 02:52:17;;;;;;;4.28;3.28;;;18.10;99.90;;;;;;5026010;28;20115;-72
2022/07/27 02:54:43;;;;;;;5.22;3.38;;;18.10;99.90;;;;;;5033555;28;20033;-72
2022/07/27 02:57:08;;;;;;;3.63;3.33;;;18.00;99.90;;;;;;5022771;28;20021;-72
2022/07/27 02:59:34;;;;;;;3.80;3.20;;;18.00;99.90;;;;;;5013614;28;20022;-72
2022/07/27 03:02:00;;;;;;;3.50;3.20;;;17.90;99.90;;;;;;5012876;28;20052;-73
2022/07/27 03:04:25;;;;;;;4.00;3.33;;;17.60;99.90;;;;;;5012644;28;20041;-72
2022/07/27 03:06:51;;;;;;;4.45;3.38;;;17.80;99.90;;;;;;5013082;28;20021;-72
2022/07/27 03:09:17;;;;;;;5.45;3.30;;;17.40;99.90;;;;;;5013352;28;20021;-72
2022/07/27 03:11:42;;;;;;;5.57;3.53;;;17.50;99.90;;;;;;5013804;28;20507;-72
2022/07/27 03:14:08;;;;;;;3.75;3.33;;;17.30;99.90;;;;;;5026835;28;20040;-72
2022/07/27 03:16:34;;;;;;;4.28;3.58;;;17.30;99.90;;;;;;5012985;28;20026;-72
2022/07/27 03:18:59;;;;;;;3.47;3.17;;;17.30;99.90;;;;;;5013188;28;20079;-71
2022/07/27 03:21:25;;;;;;;4.70;3.72;;;17.30;99.90;;;;;;5012441;28;20030;-71
2022/07/27 03:23:50;;;;;;;4.28;3.88;;;17.00;99.90;;;;;;5013011;28;20076;-71
2022/07/27 03:26:18;;;;;;;4.88;3.75;;;17.00;99.90;;;;;;5012942;28;20476;-71
2022/07/27 03:28:44;;;;;;;4.50;3.97;;;17.00;99.90;;;;;;5008385;28;20041;-72
2022/07/27 03:31:09;;;;;;;5.70;4.13;;;17.00;99.90;;;;;;5007095;28;20515;-72
2022/07/27 03:33:35;;;;;;;6.68;4.15;;;17.00;99.90;;;;;;5012963;28;20088;-72
2022/07/27 03:36:01;;;;;;;4.97;4.35;;;17.00;99.90;;;;;;5027121;28;20499;-72
2022/07/27 03:38:27;;;;;;;4.50;4.10;;;17.00;99.90;;;;;;5024607;28;20018;-72
2022/07/27 03:40:53;;;;;;;4.97;4.18;;;17.00;99.90;;;;;;5013446;28;20488;-72
2022/07/27 03:43:19;;;;;;;4.32;3.90;;;16.90;99.90;;;;;;5032413;28;20021;-72
2022/07/27 03:45:44;;;;;;;5.03;3.50;;;17.00;99.90;;;;;;5031131;28;20022;-72
2022/07/27 03:48:10;;;;;;;6.75;4.50;;;16.90;99.90;;;;;;5032340;28;20035;-72
2022/07/27 03:50:36;;;;;;;4.97;4.15;;;16.90;99.90;;;;;;5016572;28;20049;-72
2022/07/27 03:53:01;;;;;;;4.22;3.80;;;16.70;99.90;;;;;;5019570;28;20033;-71
2022/07/27 03:55:27;;;;;;;5.38;4.10;;;16.80;99.90;;;;;;5030495;28;20037;-71
2022/07/27 03:57:53;;;;;;;7.00;4.32;;;16.70;99.90;;;;;;5010985;28;20461;-71
2022/07/27 04:00:19;;;;;;;4.30;3.90;;;16.70;99.90;;;;;;5011792;28;20053;-71
2022/07/27 04:02:45;;;;;;;4.45;4.03;;;16.80;99.90;;;;;;5012403;28;20025;-71
2022/07/27 04:05:11;;;;;;;5.30;3.83;;;16.80;99.90;;;;;;5012245;28;20022;-71
2022/07/27 04:07:37;;;;;;;5.68;3.85;;;16.80;99.90;;;;;;5012255;28;20024;-71
2022/07/27 04:10:03;;;;;;;4.82;3.90;;;16.80;99.90;;;;;;5010948;28;20026;-71
2022/07/27 04:12:29;;;;;;;7.07;4.15;;;16.90;99.90;;;;;;5011676;28;20032;-71
2022/07/27 04:14:55;;;;;;;4.40;4.00;;;16.80;99.90;;;;;;5012251;28;20096;-70
2022/07/27 04:17:20;;;;;;;4.25;3.65;;;16.90;99.90;;;;;;5011803;28;20030;-71
2022/07/27 04:19:46;;;;;;;5.25;3.97;;;16.80;99.90;;;;;;5012111;28;20404;-71
2022/07/27 04:22:12;;;;;;;5.20;3.75;;;16.70;99.90;;;;;;5011330;28;20100;-71
2022/07/27 04:24:37;;;;;;;3.90;3.50;;;16.90;99.90;;;;;;5011804;28;20057;-71
2022/07/27 04:27:03;;;;;;;4.00;3.60;;;17.10;99.90;;;;;;5012040;28;20060;-71
2022/07/27 04:29:28;;;;;;;4.82;3.80;;;17.20;99.90;;;;;;5012106;28;20018;-71
2022/07/27 04:31:54;;;;;;;5.22;3.75;;;17.10;99.90;;;;;;5011279;28;20095;-71
2022/07/27 04:34:20;;;;;;;5.40;3.53;;;17.10;99.90;;;;;;5012069;28;20373;-72
2022/07/27 04:36:45;;;;;;;4.30;3.80;;;17.10;99.90;;;;;;5016819;28;20021;-71
2022/07/27 04:39:11;;;;;;;6.03;3.72;;;17.10;99.90;;;;;;5031727;28;20395;-71
2022/07/27 04:41:37;;;;;;;4.07;3.63;;;17.20;99.90;;;;;;5031009;28;20399;-71
2022/07/27 04:44:03;;;;;;;3.58;3.28;;;17.40;99.90;;;;;;5031506;28;20029;-70
2022/07/27 04:46:28;;;;;;;5.32;3.65;;;17.40;99.90;;;;;;5031526;28;20030;-70
2022/07/27 04:48:54;;;;;;;6.30;3.88;;;17.60;99.90;;;;;;5031428;28;20483;-70
2022/07/27 04:51:20;;;;;;;4.50;3.50;;;17.50;99.90;;;;;;5011082;28;20484;-70
2022/07/27 04:53:46;;;;;;;4.55;3.50;;;17.40;99.90;;;;;;5024742;28;20083;-70
2022/07/27 04:56:12;;;;;;;4.40;4.00;;;17.20;99.90;;;;;;5028460;28;20064;-71
2022/07/27 04:58:37;;;;;;;6.03;3.95;;;17.10;99.90;;;;;;5011674;28;20539;-71
2022/07/27 05:01:03;;;;;;;3.92;3.53;;;17.00;99.90;;;;;;5011019;28;20033;-71
2022/07/27 05:03:29;;;;;;;4.55;4.05;;;16.90;99.90;;;;;;5011620;28;20026;-70
2022/07/27 05:05:54;;;;;;;5.18;4.35;;;17.00;99.90;;;;;;5011486;28;20439;-74
2022/07/27 05:08:20;;;;;;;5.65;3.90;;;17.20;99.90;;;;;;5023524;28;20411;-74
2022/07/27 05:10:46;;;;;;;6.20;3.90;;;17.20;99.90;;;;;;5017620;28;20025;-74
2022/07/27 05:13:11;;;;;;;5.28;4.13;;;17.20;99.90;;;;;;5018487;28;20057;-74
2022/07/27 05:15:38;;;;;;;4.38;3.80;;;17.10;99.90;;;;;;5024905;28;20377;-73
2022/07/27 05:18:04;;;;;;;5.40;3.78;;;17.00;99.90;;;;;;5011889;28;20034;-74
2022/07/27 05:20:29;;;;;;;3.92;3.58;;;17.20;99.90;;;;;;5017313;28;20028;-74
2022/07/27 05:22:55;;;;;;;4.75;3.65;;;17.40;99.90;;;;;;5017054;28;20388;-74
2022/07/27 05:25:24;;;;;;;4.97;3.63;;;17.50;99.90;;;;;;5024568;28;20396;-74
2022/07/27 05:27:50;;;;;;;3.85;3.50;;;17.50;99.90;;;;;;5024955;28;20487;-73
2022/07/27 05:30:16;;;;;;;5.07;3.63;;;17.50;99.90;;;;;;5033612;28;20107;-74
2022/07/27 05:32:41;;;;;;;5.65;4.18;;;17.50;99.90;;;;;;5021961;28;20058;-74
2022/07/27 05:35:07;;;;;;;5.22;3.58;;;17.80;99.90;;;;;;5028437;28;20025;-72
2022/07/27 05:37:33;;;;;;;6.40;4.30;;;17.70;99.90;;;;;;5015062;28;20495;-72
2022/07/27 05:39:58;;;;;;;7.00;4.07;;;17.60;99.90;;;;;;5021292;28;20049;-73
2022/07/27 05:42:24;;;;;;;4.45;3.70;;;17.60;99.90;;;;;;5034310;28;20099;-73
2022/07/27 05:44:54;;;;;;;4.35;3.35;;;17.60;99.90;;;;;;5021457;28;20025;-73
2022/07/27 05:47:19;;;;;;;4.68;4.00;;;17.80;99.90;;;;;;5020099;28;20041;-73
2022/07/27 05:49:45;;;;;;;5.97;3.85;;;17.70;99.90;;;;;;5015036;28;20021;-72
2022/07/27 05:52:11;;;;;;;3.88;3.47;;;17.70;99.90;;;;;;5014106;28;20392;-72
2022/07/27 05:54:36;;;;;;;4.70;3.60;;;17.80;99.90;;;;;;5014658;28;20042;-73
2022/07/27 05:57:03;;;;;;;4.95;3.70;;;17.90;99.90;;;;;;5014965;28;20479;-73
2022/07/27 05:59:30;;;;;;;4.88;3.58;;;17.80;99.90;;;;;;5017620;28;20105;-72
2022/07/27 06:01:57;;;;;;;4.57;3.78;;;17.80;99.90;;;;;;5012824;28;20058;-73
2022/07/27 06:04:23;;;;;;;4.28;3.80;;;17.60;99.90;;;;;;5021368;28;20025;-72
2022/07/27 06:09:33;;;;;;;6.50;3.58;;;18.00;99.90;;;;;;5024221;28;20037;-72
2022/07/27 06:11:58;;;;;;;5.07;3.58;;;18.20;99.90;;;;;;5020400;28;20025;-72
2022/07/27 06:14:24;;;;;;;5.40;4.10;;;18.20;99.90;;;;;;5024835;28;20033;-73
2022/07/27 06:16:50;;;;;;;5.88;4.05;;;18.10;99.90;;;;;;5014319;28;20780;-72
2022/07/27 06:19:15;;;;;;;4.50;3.80;;;18.00;99.90;;;;;;5023805;28;20100;-73
2022/07/27 06:21:41;;;;;;;4.38;3.60;;;17.90;99.90;;;;;;5017520;28;20377;-73
2022/07/27 06:24:06;;;;;;;5.90;3.78;;;18.10;99.90;;;;;;5014125;28;20446;-72
2022/07/27 06:26:32;;;;;;;8.32;4.32;;;18.40;99.90;;;;;;5016961;28;20447;-73
2022/07/27 06:28:59;;;;;;;4.60;4.20;;;18.10;99.90;;;;;;5024626;28;20061;-73
2022/07/27 06:31:26;;;;;;;4.13;3.78;;;18.20;99.90;;;;;;5026977;28;20392;-74
2022/07/27 06:33:53;;;;;;;5.22;4.00;;;18.20;99.90;;;;;;5023880;28;20455;-73
2022/07/27 06:36:19;;;;;;;10.73;4.60;;;18.50;99.90;;;;;;5021279;28;20032;-74
2022/07/27 06:38:45;;;;;;;5.38;4.15;;;18.50;99.90;;;;;;5023700;28;20034;-73
2022/07/27 06:41:10;;;;;;;5.22;4.15;;;18.40;99.90;;;;;;5026566;28;20033;-74
2022/07/27 06:43:36;;;;;;;6.22;4.50;;;18.50;99.90;;;;;;5023472;28;20017;-75
2022/07/27 06:46:02;;;;;;;5.40;3.95;;;18.70;99.90;;;;;;5020412;28;20061;-74
2022/07/27 06:48:28;;;;;;;6.03;4.78;;;18.50;99.90;;;;;;5029898;28;20071;-75
2022/07/27 06:50:54;;;;;;;4.40;4.00;;;18.50;99.90;;;;;;5016329;28;20026;-73
2022/07/27 06:53:20;;;;;;;6.70;4.78;;;18.50;99.90;;;;;;5023192;28;20029;-74
2022/07/27 06:55:45;;;;;;;5.53;4.55;;;18.30;99.90;;;;;;5017099;28;20512;-74
2022/07/27 06:58:11;;;;;;;5.93;4.05;;;18.50;99.90;;;;;;5022845;28;20056;-74
2022/07/27 07:00:38;;;;;;;5.90;4.82;;;18.30;99.90;;;;;;5022498;28;20112;-74
2022/07/27 07:03:04;;;;;;;5.13;4.18;;;18.40;99.90;;;;;;5022828;28;20037;-74
2022/07/27 07:05:31;;;;;;;8.07;4.43;;;18.40;99.90;;;;;;5020000;28;20029;-74
2022/07/27 07:07:57;;;;;;;5.97;5.15;;;18.70;99.90;;;;;;5023468;28;20018;-74
2022/07/27 07:10:24;;;;;;;7.05;4.60;;;18.50;99.90;;;;;;5026197;28;20061;-74
2022/07/27 07:12:56;;;;;;;4.97;4.50;;;18.60;99.90;;;;;;5013354;28;20041;-74
2022/07/27 07:15:25;;;;;;;7.18;4.95;;;18.90;99.90;;;;;;5026391;28;20472;-74
2022/07/27 07:17:52;;;;;;;5.47;4.65;;;19.00;99.90;;;;;;5024608;28;20051;-74
2022/07/27 07:20:17;;;;;;;8.02;5.03;;;19.40;99.90;;;;;;5019061;28;20026;-74
2022/07/27 07:22:43;;;;;;;7.15;4.88;;;19.30;99.90;;;;;;5021570;28;20496;-73
2022/07/27 07:25:09;;;;;;;4.93;4.10;;;19.00;99.90;;;;;;5026420;28;20037;-75
2022/07/27 07:27:35;;;;;;;7.97;4.82;;;19.00;99.90;;;;;;5024351;28;20388;-72
2022/07/27 07:30:01;;;;;;;6.38;5.07;;;18.80;99.90;;;;;;5032752;28;20021;-71
2022/07/27 07:32:27;;;;;;;6.75;5.40;;;19.00;99.90;;;;;;5021227;28;20018;-71
2022/07/27 07:34:53;;;;;;;9.05;5.32;;;18.80;99.90;;;;;;5012991;28;20037;-71
2022/07/27 07:37:19;;;;;;;8.02;5.47;;;18.90;99.90;;;;;;5012744;28;20030;-72
2022/07/27 07:39:46;;;;;;;8.57;5.65;;;18.80;99.90;;;;;;5012750;28;20034;-71
2022/07/27 07:42:12;;;;;;;5.68;4.70;;;18.50;99.90;;;;;;5012072;28;20052;-72
2022/07/27 07:44:38;;;;;;;8.48;5.80;;;18.50;99.90;;;;;;5012525;28;20109;-71
2022/07/27 07:47:04;;;;;;;7.50;5.20;;;18.70;99.90;;;;;;5012514;28;20072;-72
2022/07/27 07:49:29;;;;;;;6.68;5.35;;;18.50;99.90;;;;;;5012598;28;20044;-71
2022/07/27 07:51:55;;;;;;;6.43;4.82;;;18.50;99.90;;;;;;5011328;28;20033;-71
2022/07/27 07:54:21;;;;;;;7.18;5.35;;;18.60;99.90;;;;;;5012581;28;20022;-71
2022/07/27 07:56:46;;;;;;;6.45;5.30;;;18.30;99.90;;;;;;5012414;28;20030;-72
2022/07/27 07:59:13;;;;;;;7.97;4.47;;;18.40;99.90;;;;;;5012414;28;20021;-72
2022/07/27 08:01:38;;;;;;;5.35;4.80;;;18.70;99.90;;;;;;5011852;28;20428;-72
2022/07/27 08:04:04;;;;;;;7.03;4.40;;;17.90;99.90;;;;;;5012356;28;20112;-71
2022/07/27 08:06:30;;;;;;;7.75;5.03;;;17.90;99.90;;;;;;5012351;28;20049;-72
2022/07/27 08:08:56;;;;;;;5.10;4.60;;;18.00;99.90;;;;;;5016750;28;20021;-71
2022/07/27 08:11:21;;;;;;;7.78;5.10;;;18.20;99.90;;;;;;5031333;28;20388;-72
2022/07/27 08:13:47;;;;;;;8.38;5.30;;;18.10;99.90;;;;;;5031863;28;20044;-71
2022/07/27 08:16:13;;;;;;;6.78;5.25;;;17.90;99.90;;;;;;5020803;28;20025;-72
2022/07/27 08:18:39;;;;;;;6.30;4.47;;;18.30;99.90;;;;;;5015514;28;20091;-72
2022/07/27 08:21:04;;;;;;;11.88;5.57;;;18.30;99.90;;;;;;5031240;28;20065;-72
2022/07/27 08:23:30;;;;;;;8.07;5.43;;;18.20;99.90;;;;;;5031747;28;20030;-72
2022/07/27 08:25:56;;;;;;;9.38;6.57;;;18.40;99.90;;;;;;5031718;28;20025;-71
2022/07/27 08:28:22;;;;;;;6.40;5.80;;;18.30;99.90;;;;;;5031786;28;20030;-71
2022/07/27 08:30:48;;;;;;;8.90;5.90;;;18.20;99.90;;;;;;5031123;28;20045;-72
2022/07/27 08:33:14;;;;;;;8.15;6.40;;;18.40;99.90;;;;;;5031475;28;20391;-72
2022/07/27 08:35:40;;;;;;;8.88;6.20;;;18.40;99.90;;;;;;5031604;28;20047;-71
2022/07/27 08:38:06;;;;;;;7.20;5.57;;;18.40;99.90;;;;;;5031568;28;20029;-72
2022/07/27 08:40:32;;;;;;;7.78;6.18;;;18.50;99.90;;;;;;5030934;28;20025;-72
2022/07/27 08:43:00;;;;;;;6.50;5.70;;;18.90;99.90;;;;;;5028231;28;20022;-72
2022/07/27 08:45:26;;;;;;;8.02;6.00;;;18.90;99.90;;;;;;5022010;28;20033;-72
2022/07/27 08:47:52;;;;;;;9.98;6.43;;;18.80;99.90;;;;;;5031327;28;20063;-72
2022/07/27 08:50:22;;;;;;;9.73;6.55;;;18.60;99.90;;;;;;5019637;28;20018;-72
2022/07/27 08:52:55;;;;;;;9.88;6.32;;;18.70;99.90;;;;;;5011533;28;20035;-71
2022/07/27 08:55:22;;;;;;;8.45;5.68;;;18.80;99.90;;;;;;5011659;28;20022;-72
2022/07/27 08:57:49;;;;;;;8.73;6.00;;;19.20;99.90;;;;;;5011662;28;20022;-72
2022/07/27 09:00:15;;;;;;;10.13;6.22;;;19.10;99.90;;;;;;5011309;28;20030;-72
2022/07/27 09:02:42;;;;;;;8.02;5.95;;;18.90;99.90;;;;;;5013168;28;20022;-72
2022/07/27 09:05:09;;;;;;;8.27;6.32;;;19.10;99.90;;;;;;5015671;28;20129;-72
2022/07/27 09:07:34;;;;;;;8.82;5.72;;;19.50;99.90;;;;;;5015519;28;20030;-72
2022/07/27 09:10:00;;;;;;;7.95;5.35;;;19.80;99.90;;;;;;5015525;28;20388;-72
2022/07/27 09:12:30;;;;;;;6.50;5.63;;;20.00;99.90;;;;;;5014878;28;20029;-72
2022/07/27 09:15:10;;;;;;;9.13;5.50;;;20.20;99.90;;;;;;5015967;28;20045;-71
2022/07/27 09:17:38;;;;;;;5.97;4.70;;;20.10;99.90;;;;;;5014489;28;20431;-72
2022/07/27 09:20:05;;;;;;;11.13;5.97;;;20.00;99.90;;;;;;5028275;28;20064;-72
2022/07/27 09:22:51;;;;;;;8.65;5.72;;;20.00;99.90;;;;;;5014360;28;20110;-71
2022/07/27 09:25:21;;;;;;;8.35;5.82;;;20.60;99.90;;;;;;5015087;28;20090;-71
2022/07/27 09:27:48;;;;;;;7.82;5.72;;;20.40;99.90;;;;;;5015226;28;20484;-71
2022/07/27 09:30:17;;;;;;;11.45;5.55;;;20.70;99.90;;;;;;5014796;28;20452;-72
2022/07/27 09:33:01;;;;;;;6.35;4.80;;;21.30;99.90;;;;;;5015110;28;20070;-71
2022/07/27 09:35:32;;;;;;;7.10;5.55;;;21.40;99.90;;;;;;5003223;28;20029;-71
2022/07/27 09:38:37;;;;;;;7.80;5.63;;;21.20;99.90;;;;;;5014938;28;20032;-71
2022/07/27 09:41:05;;;;;;;7.43;5.25;;;21.20;99.90;;;;;;5006041;28;20022;-71
2022/07/27 09:43:47;;;;;;;7.75;5.10;;;20.90;99.90;;;;;;5012563;28;20034;-71
2022/07/27 09:46:13;;;;;;;5.50;4.97;;;20.50;99.90;;;;;;5009065;28;20523;-72
2022/07/27 09:48:38;;;;;;;8.90;4.95;;;21.20;99.90;;;;;;5024678;28;20087;-71
2022/07/27 09:51:10;;;;;;;8.88;5.78;;;21.30;99.90;;;;;;5016268;28;20124;-71
2022/07/27 09:53:36;;;;;;;10.05;5.18;;;21.50;99.90;;;;;;5014807;28;20034;-72
2022/07/27 09:56:05;;;;;;;5.45;4.60;;;21.50;99.90;;;;;;5014630;28;20516;-72
2022/07/27 09:58:46;;;;;;;7.70;5.20;;;22.20;99.90;;;;;;5014714;28;20029;-71
2022/07/27 10:01:20;;;;;;;7.30;5.80;;;22.10;99.90;;;;;;5010470;28;20037;-71
2022/07/27 10:03:48;;;;;;;8.82;5.40;;;22.10;99.90;;;;;;5034318;28;20025;-71
2022/07/27 10:06:14;;;;;;;8.15;5.40;;;21.80;99.90;;;;;;5024929;28;20057;-71
2022/07/27 10:08:45;;;;;;;7.03;5.30;;;21.40;99.90;;;;;;5013306;28;20108;-72
2022/07/27 10:11:13;;;;;;;7.75;5.10;;;21.20;99.90;;;;;;5023787;28;20104;-72
2022/07/27 10:13:39;;;;;;;6.10;5.47;;;21.20;99.90;;;;;;5030098;28;20041;-72
2022/07/27 10:16:10;;;;;;;9.10;5.80;;;21.60;99.90;;;;;;5014270;28;20095;-72
2022/07/27 10:18:47;;;;;;;7.40;5.13;;;21.60;99.90;;;;;;5031765;28;20391;-71
2022/07/27 10:21:13;;;;;;;5.80;4.90;;;21.70;99.90;;;;;;5032273;28;20057;-71
2022/07/27 10:23:39;;;;;;;7.30;5.00;;;21.70;99.90;;;;;;5033937;28;20030;-71
2022/07/27 10:26:19;;;;;;;7.28;5.28;;;21.80;99.90;;;;;;5032598;28;20521;-72
2022/07/27 10:29:13;;;;;;;6.68;5.20;;;21.50;99.90;;;;;;5033944;28;20426;-71
2022/07/27 10:31:40;;;;;;;6.90;4.57;;;21.90;99.90;;;;;;5030975;28;20041;-71
2022/07/27 10:34:13;;;;;;;8.05;5.50;;;21.50;99.90;;;;;;5033760;28;20029;-71
2022/07/27 10:36:47;;;;;;;5.15;4.45;;;21.30;99.90;;;;;;5014327;28;20030;-71
2022/07/27 10:39:32;;;;;;;5.28;4.40;;;21.10;99.90;;;;;;5027293;28;20021;-71
2022/07/27 10:42:23;;;;;;;5.05;4.45;;;21.60;99.90;;;;;;5013263;28;20021;-71
2022/07/27 10:45:03;;;;;;;6.55;4.57;;;22.60;99.90;;;;;;5013808;28;20026;-72
2022/07/27 10:47:32;;;;;;;5.97;4.40;;;23.10;99.90;;;;;;5013920;28;20049;-71
2022/07/27 10:50:16;;;;;;;5.25;4.50;;;23.30;99.90;;;;;;5013604;28;20133;-71
2022/07/27 10:52:44;;;;;;;4.50;4.10;;;22.60;99.90;;;;;;5017592;28;20534;-72
2022/07/27 10:55:28;;;;;;;5.10;4.60;;;22.40;99.90;;;;;;5033460;28;20093;-71
2022/07/27 10:58:17;;;;;;;5.68;4.97;;;21.80;99.90;;;;;;5010506;28;20036;-71
2022/07/27 11:00:49;;;;;;;5.22;4.72;;;21.90;99.90;;;;;;5012980;28;20065;-71
2022/07/27 11:03:26;;;;;;;6.35;5.35;;;22.30;99.90;;;;;;5013449;28;20045;-71
2022/07/27 11:05:55;;;;;;;5.38;4.55;;;22.50;99.90;;;;;;5013593;28;20030;-71
2022/07/27 11:08:29;;;;;;;7.57;5.22;;;22.70;99.90;;;;;;5013490;28;20022;-71
2022/07/27 11:10:55;;;;;;;6.13;5.00;;;21.40;99.90;;;;;;5012707;28;20076;-71
2022/07/27 11:13:22;;;;;;;7.88;5.40;;;21.10;99.90;;;;;;5013380;28;20030;-71
2022/07/27 11:15:56;;;;;;;7.05;5.03;;;22.00;99.90;;;;;;5000243;28;20030;-71
2022/07/27 11:18:30;;;;;;;5.75;4.78;;;22.90;99.90;;;;;;5011882;28;20467;-71
2022/07/27 11:21:22;;;;;;;6.03;4.70;;;22.80;99.90;;;;;;5008087;28;20089;-71
2022/07/27 11:24:09;;;;;;;6.65;5.07;;;22.90;99.90;;;;;;5012614;28;20091;-71
2022/07/27 11:26:49;;;;;;;6.13;4.57;;;23.10;99.90;;;;;;5011889;28;20109;-71
2022/07/27 11:29:17;;;;;;;7.13;4.65;;;24.00;99.90;;;;;;5013086;28;20504;-71
2022/07/27 11:31:45;;;;;;;5.93;3.50;;;24.10;99.90;;;;;;5029549;28;20024;-71
2022/07/27 11:34:12;;;;;;;5.35;3.53;;;23.40;99.90;;;;;;5021719;28;20069;-72
2022/07/27 11:36:42;;;;;;;5.47;3.13;;;24.20;99.90;;;;;;5012793;28;20112;-71
2022/07/27 11:39:13;;;;;;;3.65;3.17;;;24.40;99.90;;;;;;5013079;28;20028;-72
2022/07/27 11:41:40;;;;;;;3.35;2.45;;;24.10;99.90;;;;;;5012172;28;20093;-71
2022/07/27 11:44:08;;;;;;;5.53;2.92;;;23.90;99.90;;;;;;5012586;28;20108;-71
2022/07/27 11:46:41;;;;;;;4.10;2.75;;;23.50;99.90;;;;;;5012657;28;20093;-71
2022/07/27 11:49:10;;;;;;;4.78;2.88;;;23.90;99.90;;;;;;5024544;28;20030;-71
2022/07/27 11:51:38;;;;;;;3.30;2.53;;;24.10;99.90;;;;;;5020628;28;20017;-72
2022/07/27 11:54:06;;;;;;;4.18;2.60;;;24.10;99.90;;;;;;5016882;28;20025;-71
2022/07/27 11:56:34;;;;;;;5.53;3.55;;;23.70;99.90;;;;;;5012725;28;20431;-72
2022/07/27 11:59:14;;;;;;;6.03;3.35;;;22.90;99.90;;;;;;5025790;28;20036;-72
2022/07/27 12:01:51;;;;;;;5.88;3.42;;;23.70;99.90;;;;;;5023636;28;20064;-72
2022/07/27 12:04:25;;;;;;;5.53;3.17;;;23.30;99.90;;;;;;5025641;28;20026;-71
2022/07/27 12:07:01;;;;;;;5.03;3.10;;;23.80;99.90;;;;;;5012155;28;20076;-71
2022/07/27 12:09:27;;;;;;;4.97;2.65;;;23.70;99.90;;;;;;5020902;28;20156;-71
2022/07/27 12:11:55;;;;;;;3.85;2.90;;;24.20;99.90;;;;;;5031357;28;20033;-71
2022/07/27 12:14:39;;;;;;;5.70;2.63;;;24.30;99.90;;;;;;5032006;28;20025;-71
2022/07/27 12:17:24;;;;;;;4.00;2.90;;;24.20;99.90;;;;;;5031926;28;20042;-71
2022/07/27 12:20:04;;;;;;;6.35;2.80;;;24.30;99.90;;;;;;5032002;28;20379;-72
2022/07/27 12:22:33;;;;;;;5.38;3.40;;;24.30;99.90;;;;;;5031300;28;20043;-71
2022/07/27 12:25:04;;;;;;;4.90;2.60;;;24.30;99.90;;;;;;5031699;28;20040;-71
2022/07/27 12:27:30;;;;;;;5.25;2.65;;;24.10;99.90;;;;;;5031818;28;20052;-71
2022/07/27 12:30:04;;;;;;;4.95;2.42;;;24.10;99.90;;;;;;5014976;28;20053;-72
2022/07/27 12:32:32;;;;;;;5.18;2.25;;;24.00;99.90;;;;;;5011531;28;20396;-72
2022/07/27 12:34:58;;;;;;;4.53;2.45;;;24.30;99.90;;;;;;5011987;28;20424;-71
2022/07/27 12:37:31;;;;;;;5.70;2.25;;;24.40;99.90;;;;;;5023685;28;20072;-72
2022/07/27 12:39:57;;;;;;;6.20;2.63;;;24.00;99.90;;;;;;5025409;28;20054;-72
2022/07/27 12:42:32;;;;;;;4.28;2.60;;;23.80;99.90;;;;;;5011379;28;20680;-71
2022/07/27 12:45:14;;;;;;;4.57;2.40;;;23.60;99.90;;;;;;5023848;28;20022;-71
2022/07/27 12:47:40;;;;;;;2.78;2.20;;;23.50;99.90;;;;;;5011811;28;20026;-71
2022/07/27 12:50:07;;;;;;;2.50;2.30;;;22.70;99.90;;;;;;5011769;28;20096;-72
2022/07/27 12:52:35;;;;;;;5.22;2.47;;;23.50;99.90;;;;;;5011221;28;20030;-74
2022/07/27 12:55:03;;;;;;;3.75;2.90;;;24.10;99.90;;;;;;5011840;28;20044;-74